Elizabethtown, North Carolina
Current Conditions -  °F | °C
As of 5:35 AM on Monday 26 Jan 2015 (Local Time) from KEYF Reporting Station
Scattered Clouds Scattered Clouds  
Wind Chill: 42°   Ceiling: Unl
Heat Index: 42°   Visibility: 10mi
Dew Point: 40°   Wind: 3mph
Humidity: 95%   Direction: 160°SSE
Pressure: 29.68"   Gusts: NA
Location:  34.63°N, 78.61°W
Report Text: KEYF 261035Z AUTO 16003KT 10SM SCT055 SCT065 SCT120 05/05 A2968 RMK AO2 T00530046
Loading
Personal Weather Stations






























Interactive Weather Map New forecast layout! Learn more

10-Day Weather Forecast

Advertisements
Track Severe Weather on mobile